Crymych, United Kingdom
Current Conditions -  °F | °C
As of 6:50 PM on Thursday 23 Oct 2014 (Local Time) from EGOP Reporting Station
Broken Clouds Broken Clouds  
Wind Chill: 59°   Ceiling: 1500
Heat Index: 59°   Visibility: 1.5mi
Dew Point: 57°   Wind: 26mph
Humidity: 94%   Direction: 230°SW
Pressure: 29.97"   Gusts: NA
Location:  52.03°N, 4.68°W
Report Text: EGOP 231750Z AUTO 23023KT 2400 // SCT007/// BKN015/// 15/14 Q1015
Loading
Personal Weather Stations






























Interactive Weather Map New forecast layout! Learn more

10-Day Weather Forecast

Advertisements
Track Severe Weather on mobile